Airfield :
LOGIN :

Register | Disclaimer

   EN    FR    IT 

 










Legend :    VFR   Marginal VFR   IFR   Intensive IFR   Very Intensive IFR
Visi :
Ceiling :
>= 8 km
>= 3000ft
5 to 8 km
1000 to 3000 ft
1500m to 5 km
500 to 1000 ft
800 to 1500m
200 to 500 ft
< 800m
< 200 ft
Symbols :   Thunderstorms  Fog  Heavy snow  Heavy precipitations  Wind > 20 kt
SIGMETs :     Misc.  Thunderstorms  Icing  Turbulence  Mountain Waves  Volcanic Ashes






- Airport Elevation : 75 ft
- IATA code : MRH


EGYM - RAF Marham

CURRENT METAR :
  • 290950Z 19010KT 8000 -RA BKN035 OVC060 09/08 Q1011 BECMG 6000 RA SCT018 RMK BLU BECMG WHT

EXPIRED METARs :
  • 290922Z 20010KT 8000 -RA BKN030 OVC060 09/08 Q1011 BECMG 6000 RA SCT018 RMK BLU BECMG WHT
  • 290850Z 21011KT 8000 -RA OVC060 09/08 Q1012 BECMG 6000 RA SCT018 RMK BLU BECMG WHT
  • 290822Z 21010KT 9999 -RA OVC050 08/07 Q1011 NOSIG RMK BLU BLU
  • 290750Z 22012G23KT 9999 -RA BKN070 08/07 Q1011 NOSIG RMK BLU BLU
  • 290720Z 23012KT CAVOK 08/06 Q1011 NOSIG RMK BLU BLU

TAF TAF EGYM
Valid from the 29 at 09:00 until the 29 at 18:00 UTC


290737Z 2909/2918 23012KT 9999 SCT030
BECMG 2909/2911 BKN010
TEMPO 2909/2916 7000 RA BKN006
PROB30
TEMPO 2910/2915 4000 RADZ BKN004
BECMG 2913/2915 22015G28KT



MET'MAP, your aeronautical weather chart ! - Copyright ORBIFLY December 2007 - Disclaimer

ORBIFLY MET'MAP TEAM :

Programming & Development : Alexandra Zaïnal
Concept & original design : Baudouin d'Aumeries
Assistance for programming : Marc-Olivier Méhu
Technical & hardware support : Manuel Goepfert

Contact : metmap@orbifly.com




SOURCES & CREDITS :

   NOAA